createdAt,value
2023-03-13T00:01:35.230Z,95.54
2023-03-13T00:04:05.593Z,95.70
2023-03-13T00:06:37.391Z,95.69
2023-03-13T00:09:08.888Z,95.65
2023-03-13T00:11:39.293Z,95.71
2023-03-13T00:14:09.632Z,95.95
2023-03-13T00:16:43.119Z,96.50
2023-03-13T00:19:13.498Z,96.49
2023-03-13T00:21:43.874Z,96.32
2023-03-13T00:24:14.143Z,96.45
2023-03-13T00:26:44.563Z,96.57
2023-03-13T00:29:15.580Z,96.55
2023-03-13T00:31:45.929Z,96.68
2023-03-13T00:34:16.229Z,96.99
2023-03-13T00:36:46.471Z,96.86
2023-03-13T00:39:16.760Z,96.93
2023-03-13T00:41:47.308Z,97.39
2023-03-13T00:44:17.581Z,97.59
2023-03-13T00:46:47.858Z,97.80
2023-03-13T00:49:18.343Z,98.03
2023-03-13T00:51:49.215Z,98.37
2023-03-13T00:54:19.611Z,98.97
2023-03-13T00:56:49.948Z,98.88
2023-03-13T00:59:20.277Z,99.09
2023-03-13T01:01:50.700Z,99.16
2023-03-13T01:04:21.023Z,99.37
2023-03-13T01:06:53.763Z,99.54
2023-03-13T01:09:24.031Z,99.94
2023-03-13T01:11:54.693Z,100.00
2023-03-13T01:14:24.951Z,100.00
2023-03-13T01:16:57.283Z,100.00
2023-03-13T01:19:28.226Z,100.00
2023-03-13T01:21:58.592Z,100.00
2023-03-13T01:24:29.145Z,100.00
2023-03-13T01:26:59.471Z,100.00
2023-03-13T01:29:30.047Z,100.00
2023-03-13T01:32:00.859Z,100.00
2023-03-13T01:34:31.182Z,100.00
2023-03-13T01:37:01.519Z,100.00
2023-03-13T01:39:31.803Z,100.00
2023-03-13T01:42:02.069Z,100.00
2023-03-13T01:44:50.477Z,100.00
2023-03-13T01:47:20.939Z,100.00
2023-03-13T01:50:11.039Z,100.00
2023-03-13T01:52:54.420Z,100.00
2023-03-13T01:55:29.560Z,100.00
2023-03-13T01:58:00.422Z,100.00
2023-03-13T02:00:33.653Z,100.00
2023-03-13T02:03:06.174Z,100.00
2023-03-13T02:05:38.110Z,100.00
2023-03-13T02:08:10.058Z,100.00
2023-03-13T02:10:43.088Z,100.00
2023-03-13T02:13:15.238Z,100.00
2023-03-13T02:15:46.222Z,100.00
2023-03-13T02:18:16.855Z,100.00
2023-03-13T02:20:53.182Z,100.00
2023-03-13T02:23:26.134Z,100.00
2023-03-13T02:25:57.567Z,100.00
2023-03-13T02:28:35.914Z,100.00
2023-03-13T02:31:09.817Z,100.00
2023-03-13T02:33:42.240Z,100.00
2023-03-13T02:36:15.924Z,100.00
2023-03-13T02:38:48.773Z,100.00
2023-03-13T02:41:21.583Z,100.00
2023-03-13T02:43:52.429Z,100.00
2023-03-13T02:46:23.193Z,100.00
2023-03-13T02:48:57.768Z,100.00
2023-03-13T02:51:31.233Z,100.00
2023-03-13T02:54:03.059Z,100.00
2023-03-13T02:56:35.290Z,100.00
2023-03-13T02:59:07.714Z,100.00
2023-03-13T03:01:39.090Z,100.00
2023-03-13T03:04:10.153Z,100.00
2023-03-13T03:06:41.912Z,100.00
2023-03-13T03:09:12.929Z,100.00
2023-03-13T03:11:43.283Z,100.00
2023-03-13T03:14:15.796Z,100.00
2023-03-13T03:16:48.452Z,100.00
2023-03-13T03:19:18.964Z,100.00
2023-03-13T03:21:49.621Z,100.00
2023-03-13T03:24:21.464Z,100.00
2023-03-13T03:26:51.673Z,100.00
2023-03-13T03:29:27.925Z,100.00
2023-03-13T03:31:59.938Z,100.00
2023-03-13T03:34:30.780Z,100.00
2023-03-13T03:37:01.677Z,100.00
2023-03-13T03:39:32.292Z,100.00
2023-03-13T03:42:04.690Z,100.00
2023-03-13T03:44:35.185Z,100.00
2023-03-13T03:47:06.927Z,100.00
2023-03-13T03:49:39.655Z,100.00
2023-03-13T03:52:11.760Z,100.00
2023-03-13T03:54:43.521Z,100.00
2023-03-13T03:57:13.834Z,100.00
2023-03-13T03:59:46.356Z,100.00
2023-03-13T04:02:17.581Z,100.00
2023-03-13T04:04:48.569Z,100.00
2023-03-13T04:07:26.220Z,100.00
2023-03-13T04:09:57.268Z,100.00
2023-03-13T04:12:32.144Z,100.00
2023-03-13T04:15:02.447Z,100.00
2023-03-13T04:17:33.454Z,100.00
2023-03-13T04:20:04.896Z,100.00
2023-03-13T04:22:35.418Z,100.00
2023-03-13T04:25:06.325Z,100.00
2023-03-13T04:27:36.967Z,100.00
2023-03-13T04:30:11.547Z,100.00
2023-03-13T04:33:00.716Z,100.00
2023-03-13T04:35:50.086Z,100.00
2023-03-13T04:38:39.330Z,100.00
2023-03-13T04:41:19.663Z,100.00
2023-03-13T04:44:01.551Z,100.00
2023-03-13T04:47:00.977Z,100.00
2023-03-13T04:49:53.984Z,100.00
2023-03-13T04:52:34.775Z,100.00
2023-03-13T04:55:23.628Z,100.00
2023-03-13T04:58:25.240Z,100.00
2023-03-13T05:01:14.567Z,100.00
2023-03-13T05:04:00.118Z,100.00
2023-03-13T05:07:06.094Z,100.00
2023-03-13T05:10:00.550Z,100.00
2023-03-13T05:13:09.810Z,100.00
2023-03-13T05:15:54.071Z,100.00
2023-03-13T05:18:27.867Z,100.00
2023-03-13T05:21:09.030Z,100.00
2023-03-13T05:24:02.572Z,100.00
2023-03-13T05:26:54.240Z,100.00
2023-03-13T05:29:42.953Z,100.00
2023-03-13T05:32:20.350Z,100.00
2023-03-13T05:35:09.733Z,100.00
2023-03-13T05:38:02.918Z,100.00
2023-03-13T05:40:43.512Z,100.00
2023-03-13T05:43:42.213Z,100.00
2023-03-13T05:46:31.147Z,100.00
2023-03-13T05:49:28.240Z,100.00
2023-03-13T05:52:18.429Z,100.00
2023-03-13T05:55:02.147Z,100.00
2023-03-13T05:57:51.576Z,100.00
2023-03-13T06:00:45.176Z,100.00
2023-03-13T06:03:38.321Z,100.00
2023-03-13T06:06:09.084Z,100.00
2023-03-13T06:08:44.110Z,100.00
2023-03-13T06:11:14.479Z,100.00
2023-03-13T06:13:44.970Z,100.00
2023-03-13T06:16:24.790Z,100.00
2023-03-13T06:18:58.938Z,100.00
2023-03-13T06:21:29.413Z,100.00
2023-03-13T06:23:59.826Z,100.00
2023-03-13T06:26:30.111Z,100.00
2023-03-13T06:29:00.696Z,100.00
2023-03-13T06:31:31.199Z,100.00
2023-03-13T06:34:01.519Z,100.00
2023-03-13T06:36:31.986Z,100.00
2023-03-13T06:39:02.397Z,100.00
2023-03-13T06:41:33.014Z,100.00
2023-03-13T06:44:03.901Z,100.00
2023-03-13T06:46:34.472Z,100.00
2023-03-13T06:49:05.963Z,100.00
2023-03-13T06:51:36.282Z,100.00
2023-03-13T06:54:06.583Z,100.00
2023-03-13T06:56:36.818Z,100.00
2023-03-13T06:59:07.108Z,100.00
2023-03-13T07:01:37.494Z,100.00
2023-03-13T07:04:07.917Z,100.00
2023-03-13T07:06:38.256Z,100.00
2023-03-13T07:09:09.901Z,100.00
2023-03-13T07:11:40.443Z,100.00
2023-03-13T07:14:16.963Z,100.00
2023-03-13T07:16:48.144Z,100.00
2023-03-13T07:19:19.349Z,100.00
2023-03-13T07:21:49.659Z,100.00
2023-03-13T07:24:21.257Z,100.00
2023-03-13T07:27:05.486Z,100.00
2023-03-13T07:29:38.169Z,100.00
2023-03-13T07:32:09.106Z,100.00
2023-03-13T07:34:39.434Z,100.00
2023-03-13T07:37:09.641Z,100.00
2023-03-13T07:39:40.046Z,100.00
2023-03-13T07:42:11.192Z,100.00
2023-03-13T07:44:41.717Z,100.00
2023-03-13T07:47:11.989Z,100.00
2023-03-13T07:49:44.096Z,100.00
2023-03-13T07:53:35.576Z,100.00
2023-03-13T07:56:11.264Z,100.00
2023-03-13T07:58:44.619Z,100.00
2023-03-13T08:01:19.233Z,100.00
2023-03-13T08:03:52.110Z,100.00
2023-03-13T08:06:26.634Z,100.00
2023-03-13T08:08:59.749Z,100.00
2023-03-13T08:11:32.442Z,100.00
2023-03-13T08:14:04.350Z,100.00
2023-03-13T08:16:37.598Z,100.00
2023-03-13T08:19:09.498Z,100.00
2023-03-13T08:21:41.710Z,100.00
2023-03-13T08:24:14.762Z,100.00
2023-03-13T08:26:46.643Z,99.77
2023-03-13T08:29:18.537Z,99.29
2023-03-13T08:31:52.744Z,99.42
2023-03-13T08:34:24.554Z,99.08
2023-03-13T08:36:56.893Z,98.69
2023-03-13T08:39:29.629Z,98.03
2023-03-13T08:41:59.903Z,97.37
2023-03-13T08:44:31.910Z,96.66
2023-03-13T08:47:06.690Z,96.38
2023-03-13T08:49:38.777Z,96.26
2023-03-13T08:52:11.398Z,95.95
2023-03-13T08:54:43.444Z,95.37
2023-03-13T08:57:15.507Z,94.91
2023-03-13T08:59:47.464Z,94.98
2023-03-13T09:02:20.908Z,94.62
2023-03-13T09:04:52.812Z,95.06
2023-03-13T09:07:26.515Z,95.27
2023-03-13T09:09:58.435Z,95.78
2023-03-13T09:12:31.711Z,95.91
2023-03-13T09:15:04.132Z,95.99
2023-03-13T09:17:36.434Z,95.98
2023-03-13T09:20:10.673Z,96.25
2023-03-13T09:22:42.474Z,96.05
2023-03-13T09:25:15.345Z,96.04
2023-03-13T09:27:47.154Z,95.91
2023-03-13T09:30:19.628Z,95.80
2023-03-13T09:32:51.585Z,96.12
2023-03-13T09:35:23.369Z,96.05
2023-03-13T09:37:55.151Z,95.97
2023-03-13T09:40:29.748Z,95.18
2023-03-13T09:43:02.917Z,94.91
2023-03-13T09:45:38.379Z,95.18
2023-03-13T09:48:19.837Z,95.37
2023-03-13T09:51:00.931Z,95.59
2023-03-13T09:53:40.604Z,95.92
2023-03-13T09:56:19.094Z,95.76
2023-03-13T09:58:55.953Z,95.89
2023-03-13T10:01:31.151Z,96.67
2023-03-13T10:04:15.607Z,96.58
2023-03-13T10:06:50.019Z,96.36
2023-03-13T10:09:25.799Z,95.90
2023-03-13T10:12:07.010Z,96.37
2023-03-13T10:14:48.867Z,95.81
2023-03-13T10:17:32.491Z,95.63
2023-03-13T10:20:18.239Z,95.77
2023-03-13T10:22:53.221Z,96.33
2023-03-13T10:25:31.770Z,97.08
2023-03-13T10:28:04.268Z,97.68
2023-03-13T10:30:38.832Z,98.05
2023-03-13T10:33:30.643Z,98.09
2023-03-13T10:36:13.958Z,98.80
2023-03-13T10:38:55.724Z,99.01
2023-03-13T10:41:31.057Z,99.35
2023-03-13T10:44:05.158Z,99.83
2023-03-13T10:46:41.839Z,99.93
2023-03-13T10:49:19.199Z,100.00
2023-03-13T10:51:53.378Z,100.00
2023-03-13T10:54:27.865Z,100.00
2023-03-13T10:57:22.503Z,100.00
2023-03-13T10:59:56.033Z,100.00
2023-03-13T11:02:34.055Z,100.00
2023-03-13T11:05:33.228Z,100.00
2023-03-13T11:08:21.486Z,100.00
2023-03-13T11:10:59.580Z,100.00
2023-03-13T11:13:37.606Z,100.00
2023-03-13T11:16:23.315Z,100.00
2023-03-13T11:19:11.194Z,100.00
2023-03-13T11:21:53.956Z,100.00
2023-03-13T11:24:33.555Z,100.00
2023-03-13T11:27:15.145Z,100.00
2023-03-13T11:29:56.274Z,100.00
2023-03-13T11:32:39.619Z,100.00
2023-03-13T11:35:22.754Z,100.00
2023-03-13T11:38:05.971Z,100.00
2023-03-13T11:40:47.913Z,100.00
2023-03-13T11:43:34.971Z,100.00
2023-03-13T11:46:23.088Z,100.00
2023-03-13T11:49:19.471Z,100.00
2023-03-13T11:52:02.804Z,100.00
2023-03-13T11:54:59.855Z,100.00
2023-03-13T11:57:37.860Z,100.00
2023-03-13T12:00:31.396Z,100.00
2023-03-13T12:03:07.508Z,100.00
2023-03-13T12:05:45.701Z,100.00
2023-03-13T12:08:28.121Z,100.00
2023-03-13T12:11:10.531Z,100.00
2023-03-13T12:13:45.230Z,100.00
2023-03-13T12:16:22.135Z,100.00
2023-03-13T12:18:55.631Z,100.00
2023-03-13T12:21:33.204Z,100.00
2023-03-13T12:24:13.748Z,100.00
2023-03-13T12:26:51.594Z,100.00
2023-03-13T12:29:32.188Z,100.00
2023-03-13T12:32:10.730Z,100.00
2023-03-13T12:34:52.772Z,100.00
2023-03-13T12:37:31.838Z,100.00
2023-03-13T12:40:13.449Z,100.00
2023-03-13T12:42:56.116Z,100.00
2023-03-13T12:45:29.844Z,100.00
2023-03-13T12:48:36.509Z,100.00
2023-03-13T12:51:25.234Z,100.00
2023-03-13T12:54:14.293Z,100.00
2023-03-13T12:57:10.688Z,100.00
2023-03-13T12:59:44.651Z,100.00
2023-03-13T13:02:19.813Z,100.00
2023-03-13T13:04:55.615Z,100.00
2023-03-13T13:07:30.173Z,100.00
2023-03-13T13:10:18.290Z,100.00
2023-03-13T13:13:21.194Z,100.00
2023-03-13T13:16:03.704Z,100.00
2023-03-13T13:18:36.873Z,100.00
2023-03-13T13:21:27.533Z,100.00
2023-03-13T13:24:36.808Z,100.00
2023-03-13T13:27:46.603Z,100.00
2023-03-13T13:30:33.745Z,100.00
2023-03-13T13:33:42.120Z,100.00
2023-03-13T13:36:42.296Z,100.00
2023-03-13T13:39:40.299Z,100.00
2023-03-13T13:42:47.914Z,100.00
2023-03-13T13:45:29.654Z,100.00
2023-03-13T13:48:32.430Z,100.00
2023-03-13T13:51:28.620Z,100.00
2023-03-13T13:54:02.462Z,100.00
2023-03-13T13:56:44.807Z,100.00
2023-03-13T13:59:40.744Z,100.00
2023-03-13T14:02:22.518Z,100.00
2023-03-13T14:05:05.007Z,100.00
2023-03-13T14:07:56.719Z,100.00
2023-03-13T14:10:40.404Z,100.00
2023-03-13T14:13:19.239Z,100.00
2023-03-13T14:15:52.822Z,100.00
2023-03-13T14:18:27.545Z,100.00
2023-03-13T14:21:01.505Z,100.00
2023-03-13T14:23:42.118Z,100.00
2023-03-13T14:26:17.843Z,100.00
2023-03-13T14:28:52.719Z,100.00
2023-03-13T14:31:31.414Z,100.00
2023-03-13T14:34:05.969Z,100.00
2023-03-13T14:36:50.917Z,100.00
2023-03-13T14:39:37.355Z,100.00
2023-03-13T14:42:13.823Z,100.00
2023-03-13T14:44:48.622Z,100.00
2023-03-13T14:47:26.770Z,100.00
2023-03-13T14:50:02.234Z,100.00
2023-03-13T14:52:35.384Z,100.00
2023-03-13T14:55:28.059Z,100.00
2023-03-13T14:58:03.503Z,100.00
2023-03-13T15:00:39.616Z,100.00
2023-03-13T15:03:34.427Z,100.00
2023-03-13T15:06:18.127Z,100.00
2023-03-13T15:09:08.614Z,100.00
2023-03-13T15:11:44.058Z,100.00
2023-03-13T15:14:38.112Z,100.00
2023-03-13T15:17:19.173Z,100.00
2023-03-13T15:19:56.246Z,100.00
2023-03-13T15:22:34.136Z,100.00
2023-03-13T15:25:08.394Z,99.97
2023-03-13T15:27:40.323Z,99.59
2023-03-13T15:30:15.645Z,99.55
2023-03-13T15:32:48.771Z,99.47
2023-03-13T15:35:28.903Z,99.60
2023-03-13T15:38:02.609Z,99.46
2023-03-13T15:40:34.504Z,99.04
2023-03-13T15:43:06.814Z,98.25
2023-03-13T15:45:40.699Z,97.95
2023-03-13T15:48:19.582Z,97.38
2023-03-13T15:50:54.784Z,97.50
2023-03-13T15:53:29.118Z,96.93
2023-03-13T15:56:02.749Z,96.36
2023-03-13T15:58:34.681Z,95.22
2023-03-13T16:01:07.632Z,94.77
2023-03-13T16:03:38.085Z,94.72
2023-03-13T16:06:17.733Z,94.85
2023-03-13T16:08:49.715Z,94.65
2023-03-13T16:11:21.766Z,94.47
2023-03-13T16:13:53.733Z,94.53
2023-03-13T16:16:28.733Z,94.51
2023-03-13T16:19:04.142Z,94.38
2023-03-13T16:21:40.309Z,94.15
2023-03-13T16:24:12.174Z,93.94
2023-03-13T16:26:44.609Z,93.28
2023-03-13T16:29:17.987Z,93.34
2023-03-13T16:31:49.854Z,92.61
2023-03-13T16:34:21.951Z,92.60
2023-03-13T16:36:53.760Z,92.67
2023-03-13T16:39:25.513Z,93.02
2023-03-13T16:41:57.792Z,93.34
2023-03-13T16:44:29.652Z,93.33
2023-03-13T16:47:06.090Z,93.27
2023-03-13T16:49:38.621Z,93.58
2023-03-13T16:52:14.811Z,93.62
2023-03-13T16:54:47.634Z,93.88
2023-03-13T16:57:18.713Z,93.40
2023-03-13T16:59:50.820Z,93.55
2023-03-13T17:02:23.276Z,93.52
2023-03-13T17:04:55.637Z,93.23
2023-03-13T17:07:29.534Z,93.31
2023-03-13T17:10:01.485Z,93.28
2023-03-13T17:12:33.395Z,93.28
2023-03-13T17:15:05.843Z,92.92
2023-03-13T17:17:37.971Z,92.95
2023-03-13T17:20:16.037Z,92.90
2023-03-13T17:22:47.957Z,92.76
2023-03-13T17:25:20.460Z,92.75
2023-03-13T17:27:52.590Z,92.86
2023-03-13T17:30:27.321Z,93.13
2023-03-13T17:33:00.900Z,93.26
2023-03-13T17:35:32.957Z,93.23
2023-03-13T17:38:05.298Z,93.28
2023-03-13T17:40:37.455Z,93.14
2023-03-13T17:43:09.868Z,93.10
2023-03-13T17:45:42.021Z,92.89
2023-03-13T17:48:15.291Z,92.96
2023-03-13T17:50:47.865Z,92.91
2023-03-13T17:53:20.267Z,92.62
2023-03-13T17:55:52.620Z,92.71
2023-03-13T17:58:24.424Z,92.86
2023-03-13T18:00:56.295Z,93.16
2023-03-13T18:03:28.285Z,93.13
2023-03-13T18:06:00.296Z,93.08
2023-03-13T18:08:32.824Z,93.32
2023-03-13T18:11:05.259Z,93.39
2023-03-13T18:13:38.075Z,93.37
2023-03-13T18:16:21.188Z,93.55
2023-03-13T18:18:56.007Z,93.58
2023-03-13T18:21:28.233Z,93.55
2023-03-13T18:24:00.437Z,93.76
2023-03-13T18:26:49.796Z,93.68
2023-03-13T18:29:27.128Z,93.72
2023-03-13T18:32:00.856Z,93.39
2023-03-13T18:34:35.016Z,93.50
2023-03-13T18:37:19.290Z,93.38
2023-03-13T18:39:55.800Z,93.55
2023-03-13T18:42:29.225Z,93.57
2023-03-13T18:45:27.695Z,93.53
2023-03-13T18:47:59.534Z,93.48
2023-03-13T18:50:35.084Z,93.56
2023-03-13T18:53:07.276Z,93.85
2023-03-13T18:55:40.347Z,93.74
2023-03-13T18:58:14.419Z,93.66
2023-03-13T19:00:46.485Z,93.73
2023-03-13T19:03:20.388Z,93.69
2023-03-13T19:05:55.757Z,93.66
2023-03-13T19:08:28.090Z,93.71
2023-03-13T19:11:00.005Z,93.64
2023-03-13T19:13:35.433Z,93.63
2023-03-13T19:16:16.799Z,93.62
2023-03-13T19:18:50.399Z,93.60
2023-03-13T19:21:25.189Z,93.69
2023-03-13T19:23:57.896Z,93.59
2023-03-13T19:26:31.150Z,93.77
2023-03-13T19:29:02.272Z,93.70
2023-03-13T19:31:34.771Z,93.72
2023-03-13T19:34:31.520Z,93.94
2023-03-13T19:37:24.981Z,93.86
2023-03-13T19:40:47.627Z,93.88
2023-03-13T19:43:19.955Z,93.85
2023-03-13T19:45:51.768Z,93.71
2023-03-13T19:48:24.031Z,93.55
2023-03-13T19:50:56.916Z,93.57
2023-03-13T19:53:29.370Z,93.44
2023-03-13T19:56:02.286Z,93.33
2023-03-13T19:58:38.517Z,93.19
2023-03-13T20:01:17.432Z,93.07
2023-03-13T20:03:54.036Z,92.98
2023-03-13T20:06:37.378Z,92.96
2023-03-13T20:09:20.878Z,92.95
2023-03-13T20:12:17.900Z,93.04
2023-03-13T20:15:37.610Z,93.04
2023-03-13T20:18:11.257Z,92.75
2023-03-13T20:20:43.824Z,92.73
2023-03-13T20:23:15.749Z,92.88
2023-03-13T20:25:48.605Z,92.86
2023-03-13T20:28:42.299Z,92.94
2023-03-13T20:31:20.115Z,92.96
2023-03-13T20:33:54.263Z,93.04
2023-03-13T20:36:27.813Z,93.20
2023-03-13T20:39:00.112Z,93.12
2023-03-13T20:41:32.976Z,93.23
2023-03-13T20:44:04.998Z,93.05
2023-03-13T20:46:36.778Z,92.80
2023-03-13T20:49:09.010Z,92.65
2023-03-13T20:51:42.048Z,92.50
2023-03-13T20:54:12.746Z,92.27
2023-03-13T20:56:45.574Z,92.10
2023-03-13T20:59:18.090Z,92.07
2023-03-13T21:01:50.607Z,91.85
2023-03-13T21:04:23.188Z,91.66
2023-03-13T21:06:57.666Z,91.34
2023-03-13T21:09:30.185Z,91.20
2023-03-13T21:12:02.250Z,90.76
2023-03-13T21:14:36.599Z,90.47
2023-03-13T21:17:10.816Z,90.29
2023-03-13T21:19:43.731Z,90.14
2023-03-13T21:22:15.800Z,89.82
2023-03-13T21:24:49.778Z,89.53
2023-03-13T21:27:23.361Z,89.46
2023-03-13T21:29:55.284Z,89.32
2023-03-13T21:32:27.221Z,89.06
2023-03-13T21:34:59.174Z,88.95
2023-03-13T21:37:31.234Z,88.64
2023-03-13T21:40:04.636Z,88.56
2023-03-13T21:42:37.625Z,88.46
2023-03-13T21:45:12.383Z,88.31
2023-03-13T21:47:44.773Z,88.08
2023-03-13T21:50:17.194Z,88.18
2023-03-13T21:52:49.055Z,87.83
2023-03-13T21:55:21.248Z,87.68
2023-03-13T21:57:53.073Z,87.63
2023-03-13T22:00:25.197Z,87.67
2023-03-13T22:02:57.255Z,87.71
2023-03-13T22:05:29.581Z,87.81
2023-03-13T22:08:02.048Z,87.67
2023-03-13T22:10:33.938Z,87.75
2023-03-13T22:13:06.201Z,87.70
2023-03-13T22:15:38.569Z,87.79
2023-03-13T22:18:10.567Z,87.56
2023-03-13T22:20:42.489Z,87.55
2023-03-13T22:23:14.619Z,87.25
2023-03-13T22:25:48.003Z,87.07
2023-03-13T22:28:19.867Z,86.83
2023-03-13T22:30:52.333Z,86.79
2023-03-13T22:33:24.272Z,86.58
2023-03-13T22:35:56.163Z,86.41
2023-03-13T22:38:28.596Z,86.21
2023-03-13T22:41:03.846Z,85.84
2023-03-13T22:43:37.858Z,85.84
2023-03-13T22:46:10.726Z,85.75
2023-03-13T22:48:43.851Z,85.46
2023-03-13T22:51:16.760Z,85.61
2023-03-13T22:53:48.767Z,85.57
2023-03-13T22:56:24.584Z,85.57
2023-03-13T22:58:59.412Z,85.54
2023-03-13T23:01:31.286Z,85.58
2023-03-13T23:04:04.294Z,85.60
2023-03-13T23:06:37.461Z,85.44
2023-03-13T23:09:09.629Z,85.44
2023-03-13T23:11:41.798Z,85.27
2023-03-13T23:14:13.320Z,85.25
2023-03-13T23:16:46.651Z,85.28
2023-03-13T23:19:20.233Z,85.44
2023-03-13T23:21:52.245Z,85.44
2023-03-13T23:24:24.513Z,85.29
2023-03-13T23:26:56.743Z,85.43
2023-03-13T23:29:28.784Z,85.39
2023-03-13T23:32:00.918Z,85.19
2023-03-13T23:34:32.732Z,84.92
2023-03-13T23:37:04.949Z,84.97
2023-03-13T23:39:37.023Z,84.96
2023-03-13T23:42:11.069Z,84.56
2023-03-13T23:44:43.614Z,84.45
2023-03-13T23:47:16.760Z,84.27
2023-03-13T23:49:50.012Z,84.06
2023-03-13T23:52:20.897Z,84.00
2023-03-13T23:54:54.646Z,83.75
2023-03-13T23:57:27.409Z,83.86
